sensor_id;sensor_type;location;lat;lon;timestamp;P1;durP1;ratioP1;P2;durP2;ratioP2
16775;SDS011;8505;49.456;8.164;2023-02-04T00:00:25;2.50;;;1.05;;
16775;SDS011;8505;49.456;8.164;2023-02-04T00:02:55;2.80;;;1.00;;
16775;SDS011;8505;49.456;8.164;2023-02-04T00:05:22;2.03;;;1.00;;
16775;SDS011;8505;49.456;8.164;2023-02-04T00:07:50;1.40;;;1.00;;
16775;SDS011;8505;49.456;8.164;2023-02-04T00:10:18;1.83;;;1.00;;
16775;SDS011;8505;49.456;8.164;2023-02-04T00:12:45;2.25;;;1.10;;
16775;SDS011;8505;49.456;8.164;2023-02-04T00:15:15;2.63;;;0.90;;
16775;SDS011;8505;49.456;8.164;2023-02-04T00:17:42;2.97;;;1.02;;
16775;SDS011;8505;49.456;8.164;2023-02-04T00:20:10;2.97;;;1.10;;
16775;SDS011;8505;49.456;8.164;2023-02-04T00:22:38;3.05;;;1.00;;
16775;SDS011;8505;49.456;8.164;2023-02-04T00:25:06;2.25;;;0.88;;
16775;SDS011;8505;49.456;8.164;2023-02-04T00:27:34;2.97;;;0.98;;
16775;SDS011;8505;49.456;8.164;2023-02-04T00:30:02;2.53;;;0.90;;
16775;SDS011;8505;49.456;8.164;2023-02-04T00:32:31;3.10;;;0.80;;
16775;SDS011;8505;49.456;8.164;2023-02-04T00:34:59;4.10;;;0.70;;
16775;SDS011;8505;49.456;8.164;2023-02-04T00:37:30;2.03;;;0.80;;
16775;SDS011;8505;49.456;8.164;2023-02-04T00:39:58;2.78;;;0.90;;
16775;SDS011;8505;49.456;8.164;2023-02-04T00:42:25;3.65;;;0.85;;
16775;SDS011;8505;49.456;8.164;2023-02-04T00:44:53;1.92;;;0.82;;
16775;SDS011;8505;49.456;8.164;2023-02-04T00:47:21;1.20;;;0.70;;
16775;SDS011;8505;49.456;8.164;2023-02-04T00:49:50;2.63;;;0.60;;
16775;SDS011;8505;49.456;8.164;2023-02-04T00:52:17;1.47;;;0.63;;
16775;SDS011;8505;49.456;8.164;2023-02-04T00:54:45;1.50;;;0.50;;
16775;SDS011;8505;49.456;8.164;2023-02-04T00:57:12;3.05;;;0.80;;
16775;SDS011;8505;49.456;8.164;2023-02-04T00:59:40;2.38;;;0.80;;
16775;SDS011;8505;49.456;8.164;2023-02-04T01:02:08;2.20;;;0.70;;
16775;SDS011;8505;49.456;8.164;2023-02-04T01:04:36;3.10;;;0.60;;
16775;SDS011;8505;49.456;8.164;2023-02-04T01:07:04;2.03;;;0.57;;
16775;SDS011;8505;49.456;8.164;2023-02-04T01:09:32;2.10;;;0.70;;
16775;SDS011;8505;49.456;8.164;2023-02-04T01:12:00;1.52;;;0.55;;
16775;SDS011;8505;49.456;8.164;2023-02-04T01:14:27;3.63;;;0.70;;
16775;SDS011;8505;49.456;8.164;2023-02-04T01:16:55;1.52;;;0.45;;
16775;SDS011;8505;49.456;8.164;2023-02-04T01:19:23;1.65;;;0.40;;
16775;SDS011;8505;49.456;8.164;2023-02-04T01:21:50;2.08;;;0.45;;
16775;SDS011;8505;49.456;8.164;2023-02-04T01:24:19;2.80;;;0.60;;
16775;SDS011;8505;49.456;8.164;2023-02-04T01:26:47;2.35;;;0.68;;
16775;SDS011;8505;49.456;8.164;2023-02-04T01:29:15;3.13;;;0.85;;
16775;SDS011;8505;49.456;8.164;2023-02-04T01:31:42;6.53;;;0.98;;
16775;SDS011;8505;49.456;8.164;2023-02-04T01:34:10;4.38;;;0.77;;
16775;SDS011;8505;49.456;8.164;2023-02-04T01:36:37;2.85;;;0.73;;
16775;SDS011;8505;49.456;8.164;2023-02-04T01:39:05;5.53;;;0.80;;
16775;SDS011;8505;49.456;8.164;2023-02-04T01:41:34;5.50;;;1.10;;
16775;SDS011;8505;49.456;8.164;2023-02-04T01:44:02;5.22;;;1.23;;
16775;SDS011;8505;49.456;8.164;2023-02-04T01:46:29;8.45;;;1.50;;
16775;SDS011;8505;49.456;8.164;2023-02-04T01:48:59;7.50;;;1.45;;
16775;SDS011;8505;49.456;8.164;2023-02-04T01:51:27;8.68;;;1.58;;
16775;SDS011;8505;49.456;8.164;2023-02-04T01:53:57;7.75;;;1.67;;
16775;SDS011;8505;49.456;8.164;2023-02-04T01:56:26;9.85;;;1.90;;
16775;SDS011;8505;49.456;8.164;2023-02-04T01:58:57;9.07;;;2.10;;
16775;SDS011;8505;49.456;8.164;2023-02-04T02:01:32;12.57;;;2.50;;
16775;SDS011;8505;49.456;8.164;2023-02-04T02:04:02;11.80;;;2.20;;
16775;SDS011;8505;49.456;8.164;2023-02-04T02:06:30;12.43;;;2.13;;
16775;SDS011;8505;49.456;8.164;2023-02-04T02:08:58;11.80;;;2.17;;
16775;SDS011;8505;49.456;8.164;2023-02-04T02:11:26;14.02;;;2.60;;
16775;SDS011;8505;49.456;8.164;2023-02-04T02:13:54;14.70;;;2.20;;
16775;SDS011;8505;49.456;8.164;2023-02-04T02:16:23;9.95;;;2.15;;
16775;SDS011;8505;49.456;8.164;2023-02-04T02:18:51;11.00;;;2.00;;
16775;SDS011;8505;49.456;8.164;2023-02-04T02:21:22;10.05;;;1.92;;
16775;SDS011;8505;49.456;8.164;2023-02-04T02:23:59;8.88;;;2.03;;
16775;SDS011;8505;49.456;8.164;2023-02-04T02:26:44;12.80;;;2.47;;
16775;SDS011;8505;49.456;8.164;2023-02-04T02:29:12;11.52;;;2.50;;
16775;SDS011;8505;49.456;8.164;2023-02-04T02:31:40;13.40;;;2.47;;
16775;SDS011;8505;49.456;8.164;2023-02-04T02:34:07;12.37;;;2.40;;
16775;SDS011;8505;49.456;8.164;2023-02-04T02:36:35;8.40;;;2.22;;
16775;SDS011;8505;49.456;8.164;2023-02-04T02:39:04;11.93;;;2.20;;
16775;SDS011;8505;49.456;8.164;2023-02-04T02:41:32;12.30;;;2.45;;
16775;SDS011;8505;49.456;8.164;2023-02-04T02:44:00;12.52;;;2.50;;
16775;SDS011;8505;49.456;8.164;2023-02-04T02:46:28;10.07;;;2.20;;
16775;SDS011;8505;49.456;8.164;2023-02-04T02:48:56;12.45;;;2.35;;
16775;SDS011;8505;49.456;8.164;2023-02-04T02:51:23;10.55;;;2.20;;
16775;SDS011;8505;49.456;8.164;2023-02-04T02:53:51;11.02;;;2.30;;
16775;SDS011;8505;49.456;8.164;2023-02-04T02:56:20;12.50;;;2.45;;
16775;SDS011;8505;49.456;8.164;2023-02-04T02:58:48;10.25;;;2.45;;
16775;SDS011;8505;49.456;8.164;2023-02-04T03:01:16;9.02;;;2.30;;
16775;SDS011;8505;49.456;8.164;2023-02-04T03:03:44;11.75;;;2.33;;
16775;SDS011;8505;49.456;8.164;2023-02-04T03:06:16;8.05;;;2.20;;
16775;SDS011;8505;49.456;8.164;2023-02-04T03:08:46;10.57;;;2.20;;
16775;SDS011;8505;49.456;8.164;2023-02-04T03:11:16;8.63;;;2.43;;
16775;SDS011;8505;49.456;8.164;2023-02-04T03:13:45;12.45;;;2.28;;
16775;SDS011;8505;49.456;8.164;2023-02-04T03:16:13;9.50;;;2.30;;
16775;SDS011;8505;49.456;8.164;2023-02-04T03:18:41;10.60;;;2.33;;
16775;SDS011;8505;49.456;8.164;2023-02-04T03:21:08;10.18;;;2.40;;
16775;SDS011;8505;49.456;8.164;2023-02-04T03:23:39;9.73;;;2.20;;
16775;SDS011;8505;49.456;8.164;2023-02-04T03:26:07;8.93;;;2.20;;
16775;SDS011;8505;49.456;8.164;2023-02-04T03:28:37;9.93;;;2.25;;
16775;SDS011;8505;49.456;8.164;2023-02-04T03:31:07;7.68;;;2.00;;
16775;SDS011;8505;49.456;8.164;2023-02-04T03:33:35;9.20;;;2.13;;
16775;SDS011;8505;49.456;8.164;2023-02-04T03:36:05;8.17;;;1.83;;
16775;SDS011;8505;49.456;8.164;2023-02-04T03:38:33;8.63;;;2.20;;
16775;SDS011;8505;49.456;8.164;2023-02-04T03:41:01;9.02;;;1.95;;
16775;SDS011;8505;49.456;8.164;2023-02-04T03:43:29;7.65;;;1.88;;
16775;SDS011;8505;49.456;8.164;2023-02-04T03:45:59;8.63;;;2.30;;
16775;SDS011;8505;49.456;8.164;2023-02-04T03:48:28;8.90;;;2.40;;
16775;SDS011;8505;49.456;8.164;2023-02-04T03:50:56;9.38;;;2.17;;
16775;SDS011;8505;49.456;8.164;2023-02-04T03:53:23;8.38;;;2.20;;
16775;SDS011;8505;49.456;8.164;2023-02-04T03:55:51;8.43;;;1.93;;
16775;SDS011;8505;49.456;8.164;2023-02-04T03:58:18;8.15;;;2.00;;
16775;SDS011;8505;49.456;8.164;2023-02-04T04:00:47;7.43;;;2.00;;
16775;SDS011;8505;49.456;8.164;2023-02-04T04:03:15;8.23;;;2.17;;
16775;SDS011;8505;49.456;8.164;2023-02-04T04:05:44;7.55;;;1.80;;
16775;SDS011;8505;49.456;8.164;2023-02-04T04:08:11;6.53;;;2.00;;
16775;SDS011;8505;49.456;8.164;2023-02-04T04:10:39;6.53;;;1.85;;
16775;SDS011;8505;49.456;8.164;2023-02-04T04:13:07;8.57;;;1.80;;
16775;SDS011;8505;49.456;8.164;2023-02-04T04:15:34;7.97;;;2.10;;
16775;SDS011;8505;49.456;8.164;2023-02-04T04:18:02;8.45;;;1.88;;
16775;SDS011;8505;49.456;8.164;2023-02-04T04:20:30;6.65;;;1.80;;
16775;SDS011;8505;49.456;8.164;2023-02-04T04:22:59;11.35;;;1.90;;
16775;SDS011;8505;49.456;8.164;2023-02-04T04:25:27;8.18;;;1.80;;
16775;SDS011;8505;49.456;8.164;2023-02-04T04:27:54;8.75;;;1.83;;
16775;SDS011;8505;49.456;8.164;2023-02-04T04:30:22;7.03;;;1.95;;
16775;SDS011;8505;49.456;8.164;2023-02-04T04:32:50;7.07;;;1.80;;
16775;SDS011;8505;49.456;8.164;2023-02-04T04:35:17;5.78;;;1.80;;
16775;SDS011;8505;49.456;8.164;2023-02-04T04:37:45;9.45;;;1.92;;
16775;SDS011;8505;49.456;8.164;2023-02-04T04:40:14;8.07;;;1.70;;
16775;SDS011;8505;49.456;8.164;2023-02-04T04:42:42;7.38;;;1.98;;
16775;SDS011;8505;49.456;8.164;2023-02-04T04:45:11;6.15;;;1.77;;
16775;SDS011;8505;49.456;8.164;2023-02-04T04:47:39;8.55;;;1.98;;
16775;SDS011;8505;49.456;8.164;2023-02-04T04:50:07;7.18;;;2.00;;
16775;SDS011;8505;49.456;8.164;2023-02-04T04:52:35;8.43;;;1.83;;
16775;SDS011;8505;49.456;8.164;2023-02-04T04:55:03;7.70;;;1.95;;
16775;SDS011;8505;49.456;8.164;2023-02-04T04:57:33;8.93;;;2.00;;
16775;SDS011;8505;49.456;8.164;2023-02-04T05:00:00;8.88;;;1.92;;
16775;SDS011;8505;49.456;8.164;2023-02-04T05:02:28;9.00;;;1.90;;
16775;SDS011;8505;49.456;8.164;2023-02-04T05:04:56;7.93;;;1.80;;
16775;SDS011;8505;49.456;8.164;2023-02-04T05:07:24;7.80;;;2.08;;
16775;SDS011;8505;49.456;8.164;2023-02-04T05:09:51;8.02;;;2.13;;
16775;SDS011;8505;49.456;8.164;2023-02-04T05:12:19;9.73;;;2.10;;
16775;SDS011;8505;49.456;8.164;2023-02-04T05:14:48;7.90;;;2.00;;
16775;SDS011;8505;49.456;8.164;2023-02-04T05:17:15;6.40;;;2.10;;
16775;SDS011;8505;49.456;8.164;2023-02-04T05:19:43;10.55;;;2.15;;
16775;SDS011;8505;49.456;8.164;2023-02-04T05:22:10;8.35;;;1.92;;
16775;SDS011;8505;49.456;8.164;2023-02-04T05:24:38;9.70;;;1.95;;
16775;SDS011;8505;49.456;8.164;2023-02-04T05:27:06;7.43;;;1.92;;
16775;SDS011;8505;49.456;8.164;2023-02-04T05:29:33;7.40;;;1.90;;
16775;SDS011;8505;49.456;8.164;2023-02-04T05:32:02;7.53;;;1.90;;
16775;SDS011;8505;49.456;8.164;2023-02-04T05:34:30;8.35;;;2.10;;
16775;SDS011;8505;49.456;8.164;2023-02-04T05:36:58;7.90;;;2.25;;
16775;SDS011;8505;49.456;8.164;2023-02-04T05:39:26;9.00;;;2.40;;
16775;SDS011;8505;49.456;8.164;2023-02-04T05:41:54;10.73;;;2.45;;
16775;SDS011;8505;49.456;8.164;2023-02-04T05:44:21;9.68;;;2.15;;
16775;SDS011;8505;49.456;8.164;2023-02-04T05:46:51;8.52;;;2.00;;
16775;SDS011;8505;49.456;8.164;2023-02-04T05:49:20;6.45;;;2.00;;
16775;SDS011;8505;49.456;8.164;2023-02-04T05:51:48;10.00;;;2.70;;
16775;SDS011;8505;49.456;8.164;2023-02-04T05:54:16;11.05;;;2.70;;
16775;SDS011;8505;49.456;8.164;2023-02-04T05:56:45;8.15;;;2.35;;
16775;SDS011;8505;49.456;8.164;2023-02-04T05:59:13;7.88;;;2.78;;
16775;SDS011;8505;49.456;8.164;2023-02-04T06:01:41;9.30;;;2.80;;
16775;SDS011;8505;49.456;8.164;2023-02-04T06:04:09;11.90;;;2.80;;
16775;SDS011;8505;49.456;8.164;2023-02-04T06:06:38;7.50;;;2.80;;
16775;SDS011;8505;49.456;8.164;2023-02-04T06:09:05;9.55;;;2.53;;
16775;SDS011;8505;49.456;8.164;2023-02-04T06:11:33;10.93;;;3.05;;
16775;SDS011;8505;49.456;8.164;2023-02-04T06:14:01;9.18;;;2.97;;
16775;SDS011;8505;49.456;8.164;2023-02-04T06:16:28;9.85;;;2.70;;
16775;SDS011;8505;49.456;8.164;2023-02-04T06:18:56;9.50;;;2.90;;
16775;SDS011;8505;49.456;8.164;2023-02-04T06:21:24;10.73;;;3.05;;
16775;SDS011;8505;49.456;8.164;2023-02-04T06:23:53;8.68;;;2.92;;
16775;SDS011;8505;49.456;8.164;2023-02-04T06:26:20;10.07;;;2.53;;
16775;SDS011;8505;49.456;8.164;2023-02-04T06:28:48;8.48;;;2.20;;
16775;SDS011;8505;49.456;8.164;2023-02-04T06:31:15;10.25;;;2.47;;
16775;SDS011;8505;49.456;8.164;2023-02-04T06:33:43;11.63;;;2.85;;
16775;SDS011;8505;49.456;8.164;2023-02-04T06:36:11;7.95;;;2.50;;
16775;SDS011;8505;49.456;8.164;2023-02-04T06:38:39;13.30;;;3.80;;
16775;SDS011;8505;49.456;8.164;2023-02-04T06:41:08;10.07;;;3.50;;
16775;SDS011;8505;49.456;8.164;2023-02-04T06:43:35;10.30;;;3.00;;
16775;SDS011;8505;49.456;8.164;2023-02-04T06:46:03;9.50;;;2.70;;
16775;SDS011;8505;49.456;8.164;2023-02-04T06:48:31;8.82;;;2.95;;
16775;SDS011;8505;49.456;8.164;2023-02-04T06:50:58;9.60;;;3.00;;
16775;SDS011;8505;49.456;8.164;2023-02-04T06:53:26;9.13;;;3.30;;
16775;SDS011;8505;49.456;8.164;2023-02-04T06:55:54;11.32;;;4.15;;
16775;SDS011;8505;49.456;8.164;2023-02-04T06:58:23;13.35;;;4.57;;
16775;SDS011;8505;49.456;8.164;2023-02-04T07:00:50;16.55;;;5.00;;
16775;SDS011;8505;49.456;8.164;2023-02-04T07:03:18;12.75;;;4.65;;
16775;SDS011;8505;49.456;8.164;2023-02-04T07:05:45;14.45;;;4.25;;
16775;SDS011;8505;49.456;8.164;2023-02-04T07:08:13;12.82;;;3.67;;
16775;SDS011;8505;49.456;8.164;2023-02-04T07:10:41;9.98;;;3.50;;
16775;SDS011;8505;49.456;8.164;2023-02-04T07:13:08;9.77;;;3.47;;
16775;SDS011;8505;49.456;8.164;2023-02-04T07:15:37;13.85;;;3.97;;
16775;SDS011;8505;49.456;8.164;2023-02-04T07:18:05;12.13;;;4.20;;
16775;SDS011;8505;49.456;8.164;2023-02-04T07:20:32;11.10;;;3.83;;
16775;SDS011;8505;49.456;8.164;2023-02-04T07:23:00;10.93;;;3.57;;
16775;SDS011;8505;49.456;8.164;2023-02-04T07:25:28;9.40;;;3.00;;
16775;SDS011;8505;49.456;8.164;2023-02-04T07:27:56;11.60;;;3.17;;
16775;SDS011;8505;49.456;8.164;2023-02-04T07:30:24;8.73;;;2.90;;
16775;SDS011;8505;49.456;8.164;2023-02-04T07:32:53;8.63;;;3.00;;
16775;SDS011;8505;49.456;8.164;2023-02-04T07:35:21;10.60;;;3.33;;
16775;SDS011;8505;49.456;8.164;2023-02-04T07:37:49;9.18;;;3.10;;
16775;SDS011;8505;49.456;8.164;2023-02-04T07:40:17;11.27;;;3.70;;
16775;SDS011;8505;49.456;8.164;2023-02-04T07:42:44;12.98;;;3.45;;
16775;SDS011;8505;49.456;8.164;2023-02-04T07:45:12;11.38;;;4.20;;
16775;SDS011;8505;49.456;8.164;2023-02-04T07:47:40;8.43;;;3.20;;
16775;SDS011;8505;49.456;8.164;2023-02-04T07:50:09;10.03;;;3.10;;
16775;SDS011;8505;49.456;8.164;2023-02-04T07:52:37;9.88;;;3.10;;
16775;SDS011;8505;49.456;8.164;2023-02-04T07:55:05;8.73;;;3.30;;
16775;SDS011;8505;49.456;8.164;2023-02-04T07:57:33;9.38;;;3.10;;
16775;SDS011;8505;49.456;8.164;2023-02-04T08:00:01;8.52;;;3.05;;
16775;SDS011;8505;49.456;8.164;2023-02-04T08:02:28;11.48;;;3.20;;
16775;SDS011;8505;49.456;8.164;2023-02-04T08:04:56;8.85;;;3.00;;
16775;SDS011;8505;49.456;8.164;2023-02-04T08:07:25;10.02;;;3.10;;
16775;SDS011;8505;49.456;8.164;2023-02-04T08:09:52;9.50;;;3.08;;
16775;SDS011;8505;49.456;8.164;2023-02-04T08:12:20;9.05;;;3.25;;
16775;SDS011;8505;49.456;8.164;2023-02-04T08:14:48;12.98;;;5.05;;
16775;SDS011;8505;49.456;8.164;2023-02-04T08:17:15;47.75;;;19.02;;
16775;SDS011;8505;49.456;8.164;2023-02-04T08:19:43;47.05;;;20.50;;
16775;SDS011;8505;49.456;8.164;2023-02-04T08:22:10;20.08;;;7.90;;
16775;SDS011;8505;49.456;8.164;2023-02-04T08:24:39;13.70;;;5.90;;
16775;SDS011;8505;49.456;8.164;2023-02-04T08:27:08;14.43;;;5.80;;
16775;SDS011;8505;49.456;8.164;2023-02-04T08:29:35;11.73;;;4.50;;
16775;SDS011;8505;49.456;8.164;2023-02-04T08:32:04;12.43;;;4.22;;
16775;SDS011;8505;49.456;8.164;2023-02-04T08:34:32;13.57;;;4.05;;
16775;SDS011;8505;49.456;8.164;2023-02-04T08:37:00;11.05;;;3.88;;
16775;SDS011;8505;49.456;8.164;2023-02-04T08:39:28;11.85;;;3.80;;
16775;SDS011;8505;49.456;8.164;2023-02-04T08:41:57;11.45;;;4.20;;
16775;SDS011;8505;49.456;8.164;2023-02-04T08:44:25;14.95;;;4.80;;
16775;SDS011;8505;49.456;8.164;2023-02-04T08:46:52;12.38;;;4.00;;
16775;SDS011;8505;49.456;8.164;2023-02-04T08:49:20;13.23;;;4.00;;
16775;SDS011;8505;49.456;8.164;2023-02-04T08:51:48;10.52;;;3.70;;
16775;SDS011;8505;49.456;8.164;2023-02-04T08:54:15;13.50;;;4.50;;
16775;SDS011;8505;49.456;8.164;2023-02-04T08:56:43;15.68;;;4.43;;
16775;SDS011;8505;49.456;8.164;2023-02-04T08:59:12;13.57;;;3.93;;
16775;SDS011;8505;49.456;8.164;2023-02-04T09:01:40;12.97;;;4.23;;
16775;SDS011;8505;49.456;8.164;2023-02-04T09:04:07;15.10;;;4.22;;
16775;SDS011;8505;49.456;8.164;2023-02-04T09:06:35;17.38;;;4.30;;
16775;SDS011;8505;49.456;8.164;2023-02-04T09:09:03;16.30;;;4.30;;
16775;SDS011;8505;49.456;8.164;2023-02-04T09:11:30;16.45;;;4.70;;
16775;SDS011;8505;49.456;8.164;2023-02-04T09:13:58;14.45;;;4.60;;
16775;SDS011;8505;49.456;8.164;2023-02-04T09:16:27;17.50;;;4.97;;
16775;SDS011;8505;49.456;8.164;2023-02-04T09:18:55;18.55;;;4.53;;
16775;SDS011;8505;49.456;8.164;2023-02-04T09:21:24;19.65;;;4.80;;
16775;SDS011;8505;49.456;8.164;2023-02-04T09:23:52;24.02;;;5.00;;
16775;SDS011;8505;49.456;8.164;2023-02-04T09:26:19;17.30;;;4.75;;
16775;SDS011;8505;49.456;8.164;2023-02-04T09:28:47;18.20;;;5.93;;
16775;SDS011;8505;49.456;8.164;2023-02-04T09:31:15;18.13;;;5.43;;
16775;SDS011;8505;49.456;8.164;2023-02-04T09:33:44;16.73;;;5.32;;
16775;SDS011;8505;49.456;8.164;2023-02-04T09:36:12;17.08;;;5.00;;
16775;SDS011;8505;49.456;8.164;2023-02-04T09:38:39;19.60;;;4.57;;
16775;SDS011;8505;49.456;8.164;2023-02-04T09:41:07;17.27;;;4.40;;
16775;SDS011;8505;49.456;8.164;2023-02-04T09:43:39;20.07;;;5.10;;
16775;SDS011;8505;49.456;8.164;2023-02-04T09:46:12;21.60;;;5.35;;
16775;SDS011;8505;49.456;8.164;2023-02-04T09:48:47;17.85;;;5.13;;
16775;SDS011;8505;49.456;8.164;2023-02-04T09:51:17;22.63;;;5.50;;
16775;SDS011;8505;49.456;8.164;2023-02-04T09:53:46;17.70;;;5.03;;
16775;SDS011;8505;49.456;8.164;2023-02-04T09:56:16;24.48;;;5.80;;
16775;SDS011;8505;49.456;8.164;2023-02-04T09:58:44;23.50;;;6.10;;
16775;SDS011;8505;49.456;8.164;2023-02-04T10:01:13;21.73;;;4.68;;
16775;SDS011;8505;49.456;8.164;2023-02-04T10:03:42;22.45;;;4.53;;
16775;SDS011;8505;49.456;8.164;2023-02-04T10:06:14;25.23;;;4.72;;
16775;SDS011;8505;49.456;8.164;2023-02-04T10:08:43;25.08;;;4.75;;
16775;SDS011;8505;49.456;8.164;2023-02-04T10:11:12;21.83;;;4.40;;
16775;SDS011;8505;49.456;8.164;2023-02-04T10:13:42;25.00;;;4.45;;
16775;SDS011;8505;49.456;8.164;2023-02-04T10:16:13;23.20;;;4.28;;
16775;SDS011;8505;49.456;8.164;2023-02-04T10:18:43;21.63;;;4.43;;
16775;SDS011;8505;49.456;8.164;2023-02-04T10:21:12;24.43;;;4.70;;
16775;SDS011;8505;49.456;8.164;2023-02-04T10:23:44;23.98;;;4.55;;
16775;SDS011;8505;49.456;8.164;2023-02-04T10:26:15;26.05;;;4.50;;
16775;SDS011;8505;49.456;8.164;2023-02-04T10:28:43;27.42;;;4.50;;
16775;SDS011;8505;49.456;8.164;2023-02-04T10:31:28;23.90;;;4.47;;
16775;SDS011;8505;49.456;8.164;2023-02-04T10:36:50;24.85;;;4.32;;
16775;SDS011;8505;49.456;8.164;2023-02-04T10:39:20;38.33;;;5.10;;
16775;SDS011;8505;49.456;8.164;2023-02-04T10:41:49;38.92;;;5.18;;
16775;SDS011;8505;49.456;8.164;2023-02-04T10:44:20;38.35;;;5.60;;
16775;SDS011;8505;49.456;8.164;2023-02-04T10:46:57;38.03;;;5.45;;
16775;SDS011;8505;49.456;8.164;2023-02-04T10:49:25;31.60;;;5.05;;
16775;SDS011;8505;49.456;8.164;2023-02-04T10:51:54;23.95;;;5.43;;
16775;SDS011;8505;49.456;8.164;2023-02-04T10:54:23;33.70;;;5.85;;
16775;SDS011;8505;49.456;8.164;2023-02-04T10:56:56;23.33;;;5.07;;
16775;SDS011;8505;49.456;8.164;2023-02-04T10:59:25;36.83;;;5.60;;
16775;SDS011;8505;49.456;8.164;2023-02-04T11:01:54;31.27;;;6.10;;
16775;SDS011;8505;49.456;8.164;2023-02-04T11:04:23;27.73;;;5.55;;
16775;SDS011;8505;49.456;8.164;2023-02-04T11:06:52;32.85;;;5.68;;
16775;SDS011;8505;49.456;8.164;2023-02-04T11:09:21;23.95;;;4.70;;
16775;SDS011;8505;49.456;8.164;2023-02-04T11:11:49;24.33;;;4.55;;
16775;SDS011;8505;49.456;8.164;2023-02-04T11:14:21;36.78;;;5.47;;
16775;SDS011;8505;49.456;8.164;2023-02-04T11:16:50;28.23;;;4.75;;
16775;SDS011;8505;49.456;8.164;2023-02-04T11:19:29;18.15;;;3.80;;
16775;SDS011;8505;49.456;8.164;2023-02-04T11:22:06;17.40;;;3.55;;
16775;SDS011;8505;49.456;8.164;2023-02-04T11:24:48;24.02;;;5.03;;
16775;SDS011;8505;49.456;8.164;2023-02-04T11:27:20;18.77;;;3.88;;
16775;SDS011;8505;49.456;8.164;2023-02-04T11:29:50;51.38;;;5.57;;
16775;SDS011;8505;49.456;8.164;2023-02-04T11:32:31;58.65;;;7.15;;
16775;SDS011;8505;49.456;8.164;2023-02-04T11:35:21;97.05;;;8.93;;
16775;SDS011;8505;49.456;8.164;2023-02-04T11:37:53;27.90;;;4.15;;
16775;SDS011;8505;49.456;8.164;2023-02-04T11:40:24;22.23;;;4.43;;
16775;SDS011;8505;49.456;8.164;2023-02-04T11:45:47;18.83;;;4.30;;
16775;SDS011;8505;49.456;8.164;2023-02-04T11:48:16;25.10;;;4.72;;
16775;SDS011;8505;49.456;8.164;2023-02-04T11:50:53;21.33;;;4.35;;
16775;SDS011;8505;49.456;8.164;2023-02-04T11:53:22;18.25;;;3.85;;
16775;SDS011;8505;49.456;8.164;2023-02-04T11:55:52;18.08;;;3.92;;
16775;SDS011;8505;49.456;8.164;2023-02-04T11:58:20;15.25;;;3.38;;
16775;SDS011;8505;49.456;8.164;2023-02-04T12:00:51;13.80;;;3.10;;
16775;SDS011;8505;49.456;8.164;2023-02-04T12:03:20;15.47;;;3.10;;
16775;SDS011;8505;49.456;8.164;2023-02-04T12:05:50;19.90;;;3.83;;
16775;SDS011;8505;49.456;8.164;2023-02-04T12:08:24;17.23;;;3.65;;
16775;SDS011;8505;49.456;8.164;2023-02-04T12:11:00;15.67;;;3.47;;
16775;SDS011;8505;49.456;8.164;2023-02-04T12:13:31;21.10;;;3.40;;
16775;SDS011;8505;49.456;8.164;2023-02-04T12:15:59;21.42;;;3.47;;
16775;SDS011;8505;49.456;8.164;2023-02-04T12:18:28;15.88;;;3.20;;
16775;SDS011;8505;49.456;8.164;2023-02-04T12:20:57;16.65;;;3.38;;
16775;SDS011;8505;49.456;8.164;2023-02-04T12:23:26;18.40;;;3.63;;
16775;SDS011;8505;49.456;8.164;2023-02-04T12:25:55;18.70;;;3.70;;
16775;SDS011;8505;49.456;8.164;2023-02-04T12:28:24;16.92;;;3.03;;
16775;SDS011;8505;49.456;8.164;2023-02-04T12:30:54;15.88;;;3.55;;
16775;SDS011;8505;49.456;8.164;2023-02-04T12:33:22;17.80;;;3.50;;
16775;SDS011;8505;49.456;8.164;2023-02-04T12:35:49;16.88;;;3.65;;
16775;SDS011;8505;49.456;8.164;2023-02-04T12:38:17;15.73;;;3.20;;
16775;SDS011;8505;49.456;8.164;2023-02-04T12:40:45;16.92;;;3.10;;
16775;SDS011;8505;49.456;8.164;2023-02-04T12:43:13;18.75;;;3.70;;
16775;SDS011;8505;49.456;8.164;2023-02-04T12:45:42;15.30;;;2.92;;
16775;SDS011;8505;49.456;8.164;2023-02-04T12:48:11;18.08;;;4.68;;
16775;SDS011;8505;49.456;8.164;2023-02-04T12:50:40;16.70;;;3.67;;
16775;SDS011;8505;49.456;8.164;2023-02-04T12:53:10;12.85;;;2.80;;
16775;SDS011;8505;49.456;8.164;2023-02-04T12:55:38;16.45;;;3.40;;
16775;SDS011;8505;49.456;8.164;2023-02-04T12:58:05;11.20;;;2.90;;
16775;SDS011;8505;49.456;8.164;2023-02-04T13:00:33;19.35;;;3.75;;
16775;SDS011;8505;49.456;8.164;2023-02-04T13:03:02;15.45;;;3.30;;
16775;SDS011;8505;49.456;8.164;2023-02-04T13:05:30;14.95;;;3.33;;
16775;SDS011;8505;49.456;8.164;2023-02-04T13:07:58;15.70;;;3.35;;
16775;SDS011;8505;49.456;8.164;2023-02-04T13:10:26;15.25;;;3.33;;
16775;SDS011;8505;49.456;8.164;2023-02-04T13:12:53;19.67;;;3.55;;
16775;SDS011;8505;49.456;8.164;2023-02-04T13:15:21;18.67;;;3.75;;
16775;SDS011;8505;49.456;8.164;2023-02-04T13:17:49;16.67;;;3.80;;
16775;SDS011;8505;49.456;8.164;2023-02-04T13:20:19;17.65;;;3.65;;
16775;SDS011;8505;49.456;8.164;2023-02-04T13:22:46;17.88;;;4.07;;
16775;SDS011;8505;49.456;8.164;2023-02-04T13:25:14;19.52;;;5.57;;
16775;SDS011;8505;49.456;8.164;2023-02-04T13:27:42;23.63;;;6.47;;
16775;SDS011;8505;49.456;8.164;2023-02-04T13:30:10;23.30;;;6.55;;
16775;SDS011;8505;49.456;8.164;2023-02-04T13:32:40;24.70;;;7.40;;
16775;SDS011;8505;49.456;8.164;2023-02-04T13:35:08;28.88;;;11.30;;
16775;SDS011;8505;49.456;8.164;2023-02-04T13:37:37;19.88;;;5.20;;
16775;SDS011;8505;49.456;8.164;2023-02-04T13:40:05;16.27;;;3.58;;
16775;SDS011;8505;49.456;8.164;2023-02-04T13:42:34;12.60;;;2.93;;
16775;SDS011;8505;49.456;8.164;2023-02-04T13:45:02;16.17;;;3.55;;
16775;SDS011;8505;49.456;8.164;2023-02-04T13:47:30;14.13;;;3.80;;
16775;SDS011;8505;49.456;8.164;2023-02-04T13:49:57;18.23;;;4.22;;
16775;SDS011;8505;49.456;8.164;2023-02-04T13:52:25;16.50;;;3.90;;
16775;SDS011;8505;49.456;8.164;2023-02-04T13:54:54;15.93;;;3.13;;
16775;SDS011;8505;49.456;8.164;2023-02-04T13:57:22;9.88;;;2.65;;
16775;SDS011;8505;49.456;8.164;2023-02-04T13:59:49;14.27;;;3.00;;
16775;SDS011;8505;49.456;8.164;2023-02-04T14:02:17;13.32;;;3.00;;
16775;SDS011;8505;49.456;8.164;2023-02-04T14:04:46;15.60;;;2.80;;
16775;SDS011;8505;49.456;8.164;2023-02-04T14:07:13;15.90;;;3.10;;
16775;SDS011;8505;49.456;8.164;2023-02-04T14:09:41;13.37;;;3.00;;
16775;SDS011;8505;49.456;8.164;2023-02-04T14:12:10;11.73;;;2.50;;
16775;SDS011;8505;49.456;8.164;2023-02-04T14:14:38;13.48;;;3.05;;
16775;SDS011;8505;49.456;8.164;2023-02-04T14:17:06;11.25;;;2.35;;
16775;SDS011;8505;49.456;8.164;2023-02-04T14:19:33;14.47;;;2.73;;
16775;SDS011;8505;49.456;8.164;2023-02-04T14:22:01;15.13;;;4.50;;
16775;SDS011;8505;49.456;8.164;2023-02-04T14:24:29;13.68;;;3.90;;
16775;SDS011;8505;49.456;8.164;2023-02-04T14:26:57;14.70;;;3.70;;
16775;SDS011;8505;49.456;8.164;2023-02-04T14:29:27;13.70;;;3.47;;
16775;SDS011;8505;49.456;8.164;2023-02-04T14:31:55;12.50;;;2.90;;
16775;SDS011;8505;49.456;8.164;2023-02-04T14:34:23;16.88;;;3.20;;
16775;SDS011;8505;49.456;8.164;2023-02-04T14:36:50;14.70;;;3.40;;
16775;SDS011;8505;49.456;8.164;2023-02-04T14:39:18;17.55;;;3.85;;
16775;SDS011;8505;49.456;8.164;2023-02-04T14:41:45;18.02;;;3.92;;
16775;SDS011;8505;49.456;8.164;2023-02-04T14:44:13;15.63;;;3.65;;
16775;SDS011;8505;49.456;8.164;2023-02-04T14:46:46;16.27;;;3.80;;
16775;SDS011;8505;49.456;8.164;2023-02-04T14:49:15;18.92;;;4.20;;
16775;SDS011;8505;49.456;8.164;2023-02-04T14:51:43;16.65;;;3.97;;
16775;SDS011;8505;49.456;8.164;2023-02-04T14:54:11;21.17;;;4.30;;
16775;SDS011;8505;49.456;8.164;2023-02-04T14:56:38;18.60;;;4.25;;
16775;SDS011;8505;49.456;8.164;2023-02-04T14:59:06;21.45;;;4.32;;
16775;SDS011;8505;49.456;8.164;2023-02-04T15:01:34;18.33;;;3.90;;
16775;SDS011;8505;49.456;8.164;2023-02-04T15:04:03;16.67;;;4.20;;
16775;SDS011;8505;49.456;8.164;2023-02-04T15:06:30;18.70;;;4.03;;